Alemania — V2OG7 — position and weather

sailwx.info

Track history (hours):
 
Tides and Currents Weather Stations Pressure Air Temp Water Temp Dewpoint Dewpoint Depression Visibility Wind Speed Wind Dir Waves Ship Positions

Alemania

Last reported at 2015-Jul-29 12:26 UTC. Time now 2015-Aug-02 18:24 UTC.
Position N 36°33' E 013°45'.

Length 130 m; draft 8 m.

Type: Cargo ship. MMSI: 304010613.

Date/timePositionNaut miles runAvg speedWind from/ knotsBaromVisibWave heightAir tempDewpointWater temp
2015-Jul-29 12:26N 36°33' E 013°45'8 8.8
2015-Jul-29 11:34N 36°31' E 013°54'9 9.1
2015-Jul-29 10:34N 36°29' E 014°05'9 9.3
2015-Jul-29 09:34N 36°27' E 014°17'9 9.3
2015-Jul-29 08:34N 36°24' E 014°28'9 9.2
2015-Jul-29 07:34N 36°21' E 014°38'9 9.1
2015-Jul-29 06:34N 36°20' E 014°50'9 9.3
2015-Jul-29 05:33N 36°20' E 015°01'12 9.7
2015-Jul-29 04:22N 36°20' E 015°16'  
2015-Jul-20 06:27N 36°48' E 010°16'0 0.0
2015-Jul-20 02:25N 36°48' E 010°16'0 0.0
2015-Jul-20 00:15N 36°48' E 010°16'0 0.0
2015-Jul-19 23:33N 36°48' E 010°16'0 0.0
2015-Jul-19 22:26N 36°48' E 010°16'0 0.0
2015-Jul-19 21:29N 36°48' E 010°16'0 0.0
2015-Jul-19 20:31N 36°48' E 010°16'0 0.0
2015-Jul-19 18:30N 36°48' E 010°16'0 0.0
2015-Jul-19 17:33N 36°48' E 010°16'0 0.0
2015-Jul-19 16:30N 36°48' E 010°16'0 0.0
2015-Jul-19 15:32N 36°48' E 010°16'  
Track history (hours):
 
Tides and Currents Weather Stations Pressure Air Temp Water Temp Dewpoint Dewpoint Depression Visibility Wind Speed Wind Dir Waves Ship Positions

Alemania

Last reported at 2015-Jul-29 12:26 UTC. Time now 2015-Aug-02 18:24 UTC.
Position N 36°33' E 013°45'.

Length 130 m; draft 8 m.

Type: Cargo ship. MMSI: 304010613.

Date/timePositionNaut miles runAvg speedWind from/ knotsBaromVisibWave heightAir tempDewpointWater temp
2015-Jul-29 12:26N 36°33' E 013°45'8 8.8
2015-Jul-29 11:34N 36°31' E 013°54'9 9.1
2015-Jul-29 10:34N 36°29' E 014°05'9 9.3
2015-Jul-29 09:34N 36°27' E 014°17'9 9.3
2015-Jul-29 08:34N 36°24' E 014°28'9 9.2
2015-Jul-29 07:34N 36°21' E 014°38'9 9.1
2015-Jul-29 06:34N 36°20' E 014°50'9 9.3
2015-Jul-29 05:33N 36°20' E 015°01'12 9.7
2015-Jul-29 04:22N 36°20' E 015°16'  
2015-Jul-20 06:27N 36°48' E 010°16'0 0.0
2015-Jul-20 02:25N 36°48' E 010°16'0 0.0
2015-Jul-20 00:15N 36°48' E 010°16'0 0.0
2015-Jul-19 23:33N 36°48' E 010°16'0 0.0
2015-Jul-19 22:26N 36°48' E 010°16'0 0.0
2015-Jul-19 21:29N 36°48' E 010°16'0 0.0
2015-Jul-19 20:31N 36°48' E 010°16'0 0.0
2015-Jul-19 18:30N 36°48' E 010°16'0 0.0
2015-Jul-19 17:33N 36°48' E 010°16'0 0.0
2015-Jul-19 16:30N 36°48' E 010°16'0 0.0
2015-Jul-19 15:32N 36°48' E 010°16'  

Dump ship's entire track history